sensor_id;sensor_type;location;lat;lon;timestamp;P1;durP1;ratioP1;P2;durP2;ratioP2
69856;SDS011;57147;53.582;10.112;2022-08-07T00:03:11;16.55;;;9.75;;
69856;SDS011;57147;53.582;10.112;2022-08-07T00:08:14;13.50;;;10.05;;
69856;SDS011;57147;53.582;10.112;2022-08-07T00:13:15;13.60;;;9.30;;
69856;SDS011;57147;53.582;10.112;2022-08-07T00:18:18;9.85;;;7.53;;
69856;SDS011;57147;53.582;10.112;2022-08-07T00:23:22;10.82;;;6.70;;
69856;SDS011;57147;53.582;10.112;2022-08-07T00:28:23;10.50;;;6.13;;
69856;SDS011;57147;53.582;10.112;2022-08-07T00:33:23;11.13;;;6.53;;
69856;SDS011;57147;53.582;10.112;2022-08-07T00:38:27;10.43;;;7.45;;
69856;SDS011;57147;53.582;10.112;2022-08-07T00:43:27;9.90;;;7.13;;
69856;SDS011;57147;53.582;10.112;2022-08-07T00:48:28;9.82;;;7.38;;
69856;SDS011;57147;53.582;10.112;2022-08-07T00:53:32;9.70;;;7.03;;
69856;SDS011;57147;53.582;10.112;2022-08-07T00:58:32;10.00;;;8.45;;
69856;SDS011;57147;53.582;10.112;2022-08-07T01:03:33;10.60;;;8.05;;
69856;SDS011;57147;53.582;10.112;2022-08-07T01:08:36;10.43;;;8.07;;
69856;SDS011;57147;53.582;10.112;2022-08-07T01:13:39;12.20;;;9.35;;
69856;SDS011;57147;53.582;10.112;2022-08-07T01:18:40;9.77;;;6.72;;
69856;SDS011;57147;53.582;10.112;2022-08-07T01:23:43;11.00;;;8.85;;
69856;SDS011;57147;53.582;10.112;2022-08-07T01:28:45;10.52;;;7.93;;
69856;SDS011;57147;53.582;10.112;2022-08-07T01:33:47;10.15;;;8.93;;
69856;SDS011;57147;53.582;10.112;2022-08-07T01:38:51;10.40;;;7.82;;
69856;SDS011;57147;53.582;10.112;2022-08-07T01:43:51;11.90;;;8.65;;
69856;SDS011;57147;53.582;10.112;2022-08-07T01:48:52;13.48;;;9.10;;
69856;SDS011;57147;53.582;10.112;2022-08-07T01:53:56;16.95;;;13.52;;
69856;SDS011;57147;53.582;10.112;2022-08-07T01:59:00;12.35;;;9.15;;
69856;SDS011;57147;53.582;10.112;2022-08-07T02:04:06;11.23;;;7.80;;
69856;SDS011;57147;53.582;10.112;2022-08-07T02:09:13;11.23;;;8.07;;
69856;SDS011;57147;53.582;10.112;2022-08-07T02:14:16;12.77;;;9.40;;
69856;SDS011;57147;53.582;10.112;2022-08-07T02:19:18;11.10;;;8.73;;
69856;SDS011;57147;53.582;10.112;2022-08-07T02:24:23;10.95;;;7.95;;
69856;SDS011;57147;53.582;10.112;2022-08-07T02:29:25;10.52;;;6.75;;
69856;SDS011;57147;53.582;10.112;2022-08-07T02:34:27;11.57;;;9.77;;
69856;SDS011;57147;53.582;10.112;2022-08-07T02:39:31;11.50;;;8.70;;
69856;SDS011;57147;53.582;10.112;2022-08-07T02:44:34;12.18;;;8.95;;
69856;SDS011;57147;53.582;10.112;2022-08-07T02:49:36;11.45;;;8.30;;
69856;SDS011;57147;53.582;10.112;2022-08-07T02:54:40;13.20;;;8.52;;
69856;SDS011;57147;53.582;10.112;2022-08-07T02:59:41;11.48;;;8.85;;
69856;SDS011;57147;53.582;10.112;2022-08-07T03:04:44;11.82;;;8.68;;
69856;SDS011;57147;53.582;10.112;2022-08-07T03:09:49;11.63;;;9.30;;
69856;SDS011;57147;53.582;10.112;2022-08-07T03:14:50;15.90;;;10.30;;
69856;SDS011;57147;53.582;10.112;2022-08-07T03:19:51;11.25;;;8.30;;
69856;SDS011;57147;53.582;10.112;2022-08-07T03:24:54;11.13;;;8.68;;
69856;SDS011;57147;53.582;10.112;2022-08-07T03:29:55;12.48;;;8.82;;
69856;SDS011;57147;53.582;10.112;2022-08-07T03:34:57;12.15;;;8.30;;
69856;SDS011;57147;53.582;10.112;2022-08-07T03:40:03;11.55;;;8.35;;
69856;SDS011;57147;53.582;10.112;2022-08-07T03:45:06;10.05;;;7.53;;
69856;SDS011;57147;53.582;10.112;2022-08-07T03:50:08;10.80;;;7.97;;
69856;SDS011;57147;53.582;10.112;2022-08-07T03:55:11;11.27;;;8.43;;
69856;SDS011;57147;53.582;10.112;2022-08-07T04:00:12;9.30;;;6.70;;
69856;SDS011;57147;53.582;10.112;2022-08-07T04:05:14;12.57;;;8.98;;
69856;SDS011;57147;53.582;10.112;2022-08-07T04:10:17;15.23;;;10.40;;
69856;SDS011;57147;53.582;10.112;2022-08-07T04:15:18;11.30;;;8.43;;
69856;SDS011;57147;53.582;10.112;2022-08-07T04:20:19;13.18;;;9.63;;
69856;SDS011;57147;53.582;10.112;2022-08-07T04:25:23;12.32;;;9.13;;
69856;SDS011;57147;53.582;10.112;2022-08-07T04:30:25;11.68;;;8.25;;
69856;SDS011;57147;53.582;10.112;2022-08-07T04:35:25;10.00;;;7.82;;
69856;SDS011;57147;53.582;10.112;2022-08-07T04:40:29;14.18;;;10.48;;
69856;SDS011;57147;53.582;10.112;2022-08-07T04:45:33;13.38;;;8.23;;
69856;SDS011;57147;53.582;10.112;2022-08-07T04:50:40;11.13;;;7.82;;
69856;SDS011;57147;53.582;10.112;2022-08-07T04:55:48;10.35;;;8.32;;
69856;SDS011;57147;53.582;10.112;2022-08-07T05:00:55;10.95;;;8.60;;
69856;SDS011;57147;53.582;10.112;2022-08-07T05:06:01;16.92;;;11.80;;
69856;SDS011;57147;53.582;10.112;2022-08-07T05:11:11;13.52;;;9.32;;
69856;SDS011;57147;53.582;10.112;2022-08-07T05:16:14;13.93;;;10.13;;
69856;SDS011;57147;53.582;10.112;2022-08-07T05:21:17;14.10;;;9.57;;
69856;SDS011;57147;53.582;10.112;2022-08-07T05:26:24;12.10;;;8.82;;
69856;SDS011;57147;53.582;10.112;2022-08-07T05:31:27;15.00;;;9.75;;
69856;SDS011;57147;53.582;10.112;2022-08-07T05:36:30;15.23;;;9.05;;
69856;SDS011;57147;53.582;10.112;2022-08-07T05:41:35;17.50;;;12.75;;
69856;SDS011;57147;53.582;10.112;2022-08-07T05:46:37;15.07;;;11.05;;
69856;SDS011;57147;53.582;10.112;2022-08-07T05:51:40;14.90;;;10.00;;
69856;SDS011;57147;53.582;10.112;2022-08-07T05:56:43;16.25;;;11.75;;
69856;SDS011;57147;53.582;10.112;2022-08-07T06:01:46;14.07;;;10.48;;
69856;SDS011;57147;53.582;10.112;2022-08-07T06:06:48;14.23;;;9.23;;
69856;SDS011;57147;53.582;10.112;2022-08-07T06:11:51;12.93;;;9.40;;
69856;SDS011;57147;53.582;10.112;2022-08-07T06:16:52;12.45;;;8.20;;
69856;SDS011;57147;53.582;10.112;2022-08-07T06:21:54;15.27;;;8.68;;
69856;SDS011;57147;53.582;10.112;2022-08-07T06:26:58;12.13;;;9.15;;
69856;SDS011;57147;53.582;10.112;2022-08-07T06:31:58;10.43;;;8.10;;
69856;SDS011;57147;53.582;10.112;2022-08-07T06:36:59;11.57;;;7.63;;
69856;SDS011;57147;53.582;10.112;2022-08-07T06:42:04;14.20;;;7.68;;
69856;SDS011;57147;53.582;10.112;2022-08-07T06:47:07;10.55;;;6.72;;
69856;SDS011;57147;53.582;10.112;2022-08-07T06:52:09;9.52;;;5.65;;
69856;SDS011;57147;53.582;10.112;2022-08-07T06:57:14;11.85;;;5.70;;
69856;SDS011;57147;53.582;10.112;2022-08-07T07:02:17;7.90;;;5.10;;
69856;SDS011;57147;53.582;10.112;2022-08-07T07:07:20;6.75;;;4.57;;
69856;SDS011;57147;53.582;10.112;2022-08-07T07:12:29;7.63;;;4.90;;
69856;SDS011;57147;53.582;10.112;2022-08-07T07:17:38;6.22;;;4.60;;
69856;SDS011;57147;53.582;10.112;2022-08-07T07:22:42;6.22;;;3.50;;
69856;SDS011;57147;53.582;10.112;2022-08-07T07:27:49;7.57;;;5.18;;
69856;SDS011;57147;53.582;10.112;2022-08-07T07:32:52;6.57;;;4.50;;
69856;SDS011;57147;53.582;10.112;2022-08-07T07:37:56;7.13;;;4.10;;
69856;SDS011;57147;53.582;10.112;2022-08-07T07:43:01;5.93;;;4.20;;
69856;SDS011;57147;53.582;10.112;2022-08-07T07:48:04;7.20;;;4.00;;
69856;SDS011;57147;53.582;10.112;2022-08-07T07:53:09;7.20;;;4.63;;
69856;SDS011;57147;53.582;10.112;2022-08-07T07:58:14;7.90;;;3.85;;
69856;SDS011;57147;53.582;10.112;2022-08-07T08:03:15;5.28;;;3.60;;
69856;SDS011;57147;53.582;10.112;2022-08-07T08:08:19;7.05;;;5.78;;
69856;SDS011;57147;53.582;10.112;2022-08-07T08:13:23;6.78;;;4.85;;
69856;SDS011;57147;53.582;10.112;2022-08-07T08:18:27;6.13;;;4.28;;
69856;SDS011;57147;53.582;10.112;2022-08-07T08:23:28;6.45;;;4.72;;
69856;SDS011;57147;53.582;10.112;2022-08-07T08:28:34;6.75;;;3.95;;
69856;SDS011;57147;53.582;10.112;2022-08-07T08:33:37;6.10;;;3.80;;
69856;SDS011;57147;53.582;10.112;2022-08-07T08:38:39;6.60;;;4.85;;
69856;SDS011;57147;53.582;10.112;2022-08-07T08:43:48;6.43;;;3.70;;
69856;SDS011;57147;53.582;10.112;2022-08-07T08:49:01;4.90;;;4.20;;
69856;SDS011;57147;53.582;10.112;2022-08-07T08:54:08;4.53;;;3.00;;
69856;SDS011;57147;53.582;10.112;2022-08-07T08:59:19;4.00;;;2.97;;
69856;SDS011;57147;53.582;10.112;2022-08-07T09:04:28;5.60;;;3.70;;
69856;SDS011;57147;53.582;10.112;2022-08-07T09:09:46;6.20;;;4.10;;
69856;SDS011;57147;53.582;10.112;2022-08-07T09:15:02;5.60;;;3.20;;
69856;SDS011;57147;53.582;10.112;2022-08-07T09:25:19;4.80;;;3.42;;
69856;SDS011;57147;53.582;10.112;2022-08-07T09:30:26;4.80;;;3.92;;
69856;SDS011;57147;53.582;10.112;2022-08-07T09:35:39;5.88;;;3.78;;
69856;SDS011;57147;53.582;10.112;2022-08-07T09:40:56;4.97;;;3.40;;
69856;SDS011;57147;53.582;10.112;2022-08-07T09:46:12;6.18;;;4.28;;
69856;SDS011;57147;53.582;10.112;2022-08-07T09:51:30;6.63;;;4.40;;
69856;SDS011;57147;53.582;10.112;2022-08-07T09:56:57;7.53;;;4.47;;
69856;SDS011;57147;53.582;10.112;2022-08-07T10:02:18;4.95;;;3.72;;
69856;SDS011;57147;53.582;10.112;2022-08-07T10:07:47;7.05;;;4.18;;
69856;SDS011;57147;53.582;10.112;2022-08-07T10:18:26;4.50;;;3.72;;
69856;SDS011;57147;53.582;10.112;2022-08-07T10:23:50;6.40;;;2.85;;
69856;SDS011;57147;53.582;10.112;2022-08-07T10:29:10;5.43;;;4.05;;
69856;SDS011;57147;53.582;10.112;2022-08-07T10:34:37;4.65;;;3.45;;
69856;SDS011;57147;53.582;10.112;2022-08-07T10:39:53;5.07;;;3.20;;
69856;SDS011;57147;53.582;10.112;2022-08-07T10:45:02;5.40;;;3.10;;
69856;SDS011;57147;53.582;10.112;2022-08-07T10:50:19;5.03;;;4.10;;
69856;SDS011;57147;53.582;10.112;2022-08-07T10:55:24;4.68;;;2.95;;
69856;SDS011;57147;53.582;10.112;2022-08-07T11:00:29;4.65;;;3.70;;
69856;SDS011;57147;53.582;10.112;2022-08-07T11:05:40;3.78;;;3.05;;
69856;SDS011;57147;53.582;10.112;2022-08-07T11:10:46;4.88;;;3.47;;
69856;SDS011;57147;53.582;10.112;2022-08-07T11:15:54;5.15;;;3.05;;
69856;SDS011;57147;53.582;10.112;2022-08-07T11:21:03;4.10;;;2.90;;
69856;SDS011;57147;53.582;10.112;2022-08-07T11:26:10;3.72;;;3.17;;
69856;SDS011;57147;53.582;10.112;2022-08-07T11:31:18;6.28;;;5.05;;
69856;SDS011;57147;53.582;10.112;2022-08-07T11:36:31;5.82;;;3.85;;
69856;SDS011;57147;53.582;10.112;2022-08-07T11:41:39;3.83;;;2.85;;
69856;SDS011;57147;53.582;10.112;2022-08-07T11:46:47;4.03;;;3.63;;
69856;SDS011;57147;53.582;10.112;2022-08-07T11:52:07;4.30;;;3.47;;
69856;SDS011;57147;53.582;10.112;2022-08-07T11:57:25;5.05;;;3.38;;
69856;SDS011;57147;53.582;10.112;2022-08-07T12:02:41;3.90;;;2.92;;
69856;SDS011;57147;53.582;10.112;2022-08-07T12:07:55;5.95;;;2.97;;
69856;SDS011;57147;53.582;10.112;2022-08-07T12:12:59;4.35;;;2.75;;
69856;SDS011;57147;53.582;10.112;2022-08-07T12:18:04;3.47;;;2.65;;
69856;SDS011;57147;53.582;10.112;2022-08-07T12:23:18;3.50;;;2.50;;
69856;SDS011;57147;53.582;10.112;2022-08-07T12:28:35;4.00;;;3.40;;
69856;SDS011;57147;53.582;10.112;2022-08-07T12:33:51;3.88;;;2.90;;
69856;SDS011;57147;53.582;10.112;2022-08-07T12:38:56;4.40;;;2.58;;
69856;SDS011;57147;53.582;10.112;2022-08-07T12:43:58;3.80;;;2.97;;
69856;SDS011;57147;53.582;10.112;2022-08-07T12:49:01;4.00;;;2.78;;
69856;SDS011;57147;53.582;10.112;2022-08-07T12:54:13;4.72;;;2.53;;
69856;SDS011;57147;53.582;10.112;2022-08-07T12:59:24;3.15;;;2.45;;
69856;SDS011;57147;53.582;10.112;2022-08-07T13:04:28;4.85;;;2.15;;
69856;SDS011;57147;53.582;10.112;2022-08-07T13:09:55;4.55;;;3.13;;
69856;SDS011;57147;53.582;10.112;2022-08-07T13:15:21;3.55;;;2.25;;
69856;SDS011;57147;53.582;10.112;2022-08-07T13:20:30;3.30;;;2.83;;
69856;SDS011;57147;53.582;10.112;2022-08-07T13:25:45;4.65;;;3.42;;
69856;SDS011;57147;53.582;10.112;2022-08-07T13:30:51;4.25;;;2.95;;
69856;SDS011;57147;53.582;10.112;2022-08-07T13:35:58;3.30;;;2.47;;
69856;SDS011;57147;53.582;10.112;2022-08-07T13:41:11;3.92;;;2.80;;
69856;SDS011;57147;53.582;10.112;2022-08-07T13:46:20;4.25;;;2.72;;
69856;SDS011;57147;53.582;10.112;2022-08-07T13:51:27;4.72;;;2.90;;
69856;SDS011;57147;53.582;10.112;2022-08-07T13:56:32;3.83;;;2.85;;
69856;SDS011;57147;53.582;10.112;2022-08-07T14:01:36;4.07;;;3.10;;
69856;SDS011;57147;53.582;10.112;2022-08-07T14:06:47;2.97;;;2.67;;
69856;SDS011;57147;53.582;10.112;2022-08-07T14:11:52;4.65;;;2.97;;
69856;SDS011;57147;53.582;10.112;2022-08-07T14:16:57;4.03;;;2.95;;
69856;SDS011;57147;53.582;10.112;2022-08-07T14:22:00;4.72;;;3.17;;
69856;SDS011;57147;53.582;10.112;2022-08-07T14:27:08;4.90;;;1.90;;
69856;SDS011;57147;53.582;10.112;2022-08-07T14:32:10;2.95;;;2.47;;
69856;SDS011;57147;53.582;10.112;2022-08-07T14:37:12;5.07;;;3.03;;
69856;SDS011;57147;53.582;10.112;2022-08-07T14:42:22;6.05;;;3.67;;
69856;SDS011;57147;53.582;10.112;2022-08-07T14:47:29;2.85;;;2.10;;
69856;SDS011;57147;53.582;10.112;2022-08-07T14:52:31;4.00;;;3.25;;
69856;SDS011;57147;53.582;10.112;2022-08-07T14:57:36;4.22;;;2.25;;
69856;SDS011;57147;53.582;10.112;2022-08-07T15:02:41;3.55;;;2.35;;
69856;SDS011;57147;53.582;10.112;2022-08-07T15:07:44;4.05;;;2.63;;
69856;SDS011;57147;53.582;10.112;2022-08-07T15:12:48;4.93;;;2.35;;
69856;SDS011;57147;53.582;10.112;2022-08-07T15:17:52;3.88;;;3.47;;
69856;SDS011;57147;53.582;10.112;2022-08-07T15:22:59;5.28;;;3.70;;
69856;SDS011;57147;53.582;10.112;2022-08-07T15:28:04;4.97;;;2.30;;
69856;SDS011;57147;53.582;10.112;2022-08-07T15:33:07;5.85;;;3.20;;
69856;SDS011;57147;53.582;10.112;2022-08-07T15:38:08;3.97;;;2.55;;
69856;SDS011;57147;53.582;10.112;2022-08-07T15:43:16;4.05;;;2.53;;
69856;SDS011;57147;53.582;10.112;2022-08-07T15:48:21;3.55;;;2.85;;
69856;SDS011;57147;53.582;10.112;2022-08-07T15:53:25;4.10;;;2.72;;
69856;SDS011;57147;53.582;10.112;2022-08-07T15:58:35;3.35;;;2.45;;
69856;SDS011;57147;53.582;10.112;2022-08-07T16:03:37;4.82;;;3.22;;
69856;SDS011;57147;53.582;10.112;2022-08-07T16:08:40;3.78;;;2.72;;
69856;SDS011;57147;53.582;10.112;2022-08-07T16:13:49;3.35;;;2.30;;
69856;SDS011;57147;53.582;10.112;2022-08-07T16:18:57;3.65;;;2.15;;
69856;SDS011;57147;53.582;10.112;2022-08-07T16:24:08;3.95;;;2.22;;
69856;SDS011;57147;53.582;10.112;2022-08-07T16:29:24;2.83;;;2.45;;
69856;SDS011;57147;53.582;10.112;2022-08-07T16:34:38;2.70;;;2.08;;
69856;SDS011;57147;53.582;10.112;2022-08-07T16:45:33;4.75;;;2.33;;
69856;SDS011;57147;53.582;10.112;2022-08-07T16:51:07;2.90;;;2.17;;
69856;SDS011;57147;53.582;10.112;2022-08-07T16:56:16;4.25;;;2.50;;
69856;SDS011;57147;53.582;10.112;2022-08-07T17:01:35;4.60;;;2.97;;
69856;SDS011;57147;53.582;10.112;2022-08-07T17:06:52;4.10;;;2.85;;
69856;SDS011;57147;53.582;10.112;2022-08-07T17:11:55;4.28;;;1.80;;
69856;SDS011;57147;53.582;10.112;2022-08-07T17:17:03;4.32;;;2.65;;
69856;SDS011;57147;53.582;10.112;2022-08-07T17:22:12;3.92;;;2.75;;
69856;SDS011;57147;53.582;10.112;2022-08-07T17:27:16;4.03;;;1.60;;
69856;SDS011;57147;53.582;10.112;2022-08-07T17:32:26;3.22;;;2.38;;
69856;SDS011;57147;53.582;10.112;2022-08-07T17:37:32;2.50;;;1.10;;
69856;SDS011;57147;53.582;10.112;2022-08-07T17:42:39;3.42;;;2.30;;
69856;SDS011;57147;53.582;10.112;2022-08-07T17:47:57;3.47;;;2.22;;
69856;SDS011;57147;53.582;10.112;2022-08-07T17:53:03;3.13;;;2.72;;
69856;SDS011;57147;53.582;10.112;2022-08-07T17:58:16;4.03;;;2.75;;
69856;SDS011;57147;53.582;10.112;2022-08-07T18:03:25;3.67;;;2.80;;
69856;SDS011;57147;53.582;10.112;2022-08-07T18:08:35;3.97;;;2.85;;
69856;SDS011;57147;53.582;10.112;2022-08-07T18:13:47;4.07;;;2.70;;
69856;SDS011;57147;53.582;10.112;2022-08-07T18:18:56;3.20;;;1.77;;
69856;SDS011;57147;53.582;10.112;2022-08-07T18:24:07;3.72;;;2.72;;
69856;SDS011;57147;53.582;10.112;2022-08-07T18:29:18;15.73;;;13.30;;
69856;SDS011;57147;53.582;10.112;2022-08-07T18:34:31;4.72;;;2.75;;
69856;SDS011;57147;53.582;10.112;2022-08-07T18:39:58;3.97;;;2.20;;
69856;SDS011;57147;53.582;10.112;2022-08-07T18:45:07;5.07;;;3.13;;
69856;SDS011;57147;53.582;10.112;2022-08-07T18:50:17;4.75;;;1.75;;
69856;SDS011;57147;53.582;10.112;2022-08-07T18:55:34;11.73;;;7.80;;
69856;SDS011;57147;53.582;10.112;2022-08-07T19:01:00;8.18;;;5.45;;
69856;SDS011;57147;53.582;10.112;2022-08-07T19:06:13;4.47;;;3.63;;
69856;SDS011;57147;53.582;10.112;2022-08-07T19:11:17;4.45;;;3.30;;
69856;SDS011;57147;53.582;10.112;2022-08-07T19:16:21;4.38;;;2.90;;
69856;SDS011;57147;53.582;10.112;2022-08-07T19:21:37;4.43;;;3.50;;
69856;SDS011;57147;53.582;10.112;2022-08-07T19:26:43;6.85;;;5.20;;
69856;SDS011;57147;53.582;10.112;2022-08-07T19:31:49;10.82;;;8.88;;
69856;SDS011;57147;53.582;10.112;2022-08-07T19:36:53;6.88;;;5.60;;
69856;SDS011;57147;53.582;10.112;2022-08-07T19:41:57;5.90;;;2.85;;
69856;SDS011;57147;53.582;10.112;2022-08-07T19:47:02;9.93;;;8.73;;
69856;SDS011;57147;53.582;10.112;2022-08-07T19:52:08;11.40;;;8.43;;
69856;SDS011;57147;53.582;10.112;2022-08-07T19:57:10;7.90;;;6.30;;
69856;SDS011;57147;53.582;10.112;2022-08-07T20:02:14;7.72;;;4.78;;
69856;SDS011;57147;53.582;10.112;2022-08-07T20:07:26;8.60;;;5.35;;
69856;SDS011;57147;53.582;10.112;2022-08-07T20:12:29;7.70;;;4.68;;
69856;SDS011;57147;53.582;10.112;2022-08-07T20:17:30;6.40;;;5.35;;
69856;SDS011;57147;53.582;10.112;2022-08-07T20:22:36;5.53;;;3.00;;
69856;SDS011;57147;53.582;10.112;2022-08-07T20:27:42;10.25;;;6.20;;
69856;SDS011;57147;53.582;10.112;2022-08-07T20:32:44;6.72;;;4.82;;
69856;SDS011;57147;53.582;10.112;2022-08-07T20:37:49;5.38;;;3.95;;
69856;SDS011;57147;53.582;10.112;2022-08-07T20:42:52;7.03;;;5.03;;
69856;SDS011;57147;53.582;10.112;2022-08-07T20:47:53;5.88;;;5.00;;
69856;SDS011;57147;53.582;10.112;2022-08-07T20:52:57;16.88;;;8.82;;
69856;SDS011;57147;53.582;10.112;2022-08-07T20:57:59;7.00;;;5.30;;
69856;SDS011;57147;53.582;10.112;2022-08-07T21:03:01;4.82;;;4.03;;
69856;SDS011;57147;53.582;10.112;2022-08-07T21:08:06;6.55;;;4.70;;
69856;SDS011;57147;53.582;10.112;2022-08-07T21:13:10;8.35;;;5.07;;
69856;SDS011;57147;53.582;10.112;2022-08-07T21:18:13;21.98;;;17.25;;
69856;SDS011;57147;53.582;10.112;2022-08-07T21:23:20;10.30;;;8.45;;
69856;SDS011;57147;53.582;10.112;2022-08-07T21:28:25;9.23;;;7.35;;
69856;SDS011;57147;53.582;10.112;2022-08-07T21:33:31;14.25;;;10.75;;
69856;SDS011;57147;53.582;10.112;2022-08-07T21:38:43;11.35;;;8.70;;
69856;SDS011;57147;53.582;10.112;2022-08-07T21:43:51;9.02;;;6.82;;
69856;SDS011;57147;53.582;10.112;2022-08-07T21:49:02;8.43;;;6.32;;
69856;SDS011;57147;53.582;10.112;2022-08-07T21:54:16;9.50;;;7.75;;
69856;SDS011;57147;53.582;10.112;2022-08-07T21:59:28;7.97;;;6.30;;
69856;SDS011;57147;53.582;10.112;2022-08-07T22:04:34;7.85;;;6.85;;
69856;SDS011;57147;53.582;10.112;2022-08-07T22:09:41;9.27;;;6.15;;
69856;SDS011;57147;53.582;10.112;2022-08-07T22:14:46;6.53;;;4.72;;
69856;SDS011;57147;53.582;10.112;2022-08-07T22:19:54;7.20;;;5.82;;
69856;SDS011;57147;53.582;10.112;2022-08-07T22:25:06;7.63;;;6.63;;
69856;SDS011;57147;53.582;10.112;2022-08-07T22:30:12;6.07;;;5.10;;
69856;SDS011;57147;53.582;10.112;2022-08-07T22:35:15;6.22;;;4.75;;
69856;SDS011;57147;53.582;10.112;2022-08-07T22:40:20;6.80;;;5.53;;
69856;SDS011;57147;53.582;10.112;2022-08-07T22:45:26;6.13;;;5.47;;
69856;SDS011;57147;53.582;10.112;2022-08-07T22:55:55;7.35;;;6.60;;
69856;SDS011;57147;53.582;10.112;2022-08-07T23:01:02;6.35;;;5.03;;
69856;SDS011;57147;53.582;10.112;2022-08-07T23:06:16;6.72;;;5.50;;
69856;SDS011;57147;53.582;10.112;2022-08-07T23:11:50;7.85;;;5.45;;
69856;SDS011;57147;53.582;10.112;2022-08-07T23:17:02;6.50;;;5.07;;
69856;SDS011;57147;53.582;10.112;2022-08-07T23:22:18;6.13;;;5.45;;
69856;SDS011;57147;53.582;10.112;2022-08-07T23:27:35;9.75;;;7.53;;
69856;SDS011;57147;53.582;10.112;2022-08-07T23:32:56;7.57;;;6.03;;
69856;SDS011;57147;53.582;10.112;2022-08-07T23:38:10;7.20;;;5.82;;
69856;SDS011;57147;53.582;10.112;2022-08-07T23:49:03;6.75;;;5.72;;
69856;SDS011;57147;53.582;10.112;2022-08-07T23:54:19;13.38;;;10.15;;
69856;SDS011;57147;53.582;10.112;2022-08-07T23:59:27;8.07;;;7.00;;
